createdAt,value
2019-03-03T00:02:01.307Z,6.05
2019-03-03T00:04:32.151Z,6.12
2019-03-03T00:07:02.020Z,7.47
2019-03-03T00:09:31.788Z,5.72
2019-03-03T00:12:01.517Z,7.60
2019-03-03T00:14:31.284Z,6.30
2019-03-03T00:17:01.197Z,8.35
2019-03-03T00:19:31.185Z,7.30
2019-03-03T00:22:00.945Z,7.30
2019-03-03T00:24:30.762Z,7.50
2019-03-03T00:27:00.557Z,5.95
2019-03-03T00:29:30.282Z,4.83
2019-03-03T00:32:00.225Z,10.08
2019-03-03T00:34:32.091Z,8.95
2019-03-03T00:37:12.464Z,7.33
2019-03-03T00:39:46.674Z,8.58
2019-03-03T00:42:21.047Z,6.72
2019-03-03T00:44:58.418Z,6.60
2019-03-03T00:47:29.784Z,7.22
2019-03-03T00:50:01.328Z,8.25
2019-03-03T00:52:32.768Z,7.60
2019-03-03T00:55:04.836Z,6.72
2019-03-03T00:57:37.868Z,9.50
2019-03-03T01:00:10.730Z,7.72
2019-03-03T01:02:42.184Z,7.15
2019-03-03T01:05:16.528Z,9.70
2019-03-03T01:07:54.133Z,7.92
2019-03-03T01:10:28.587Z,7.25
2019-03-03T01:12:59.964Z,8.40
2019-03-03T01:15:34.077Z,5.97
2019-03-03T01:18:08.607Z,7.65
2019-03-03T01:20:39.874Z,9.00
2019-03-03T01:23:23.670Z,5.33
2019-03-03T01:25:53.397Z,6.80
2019-03-03T01:28:23.334Z,5.80
2019-03-03T01:30:53.028Z,8.23
2019-03-03T01:33:23.058Z,7.72
2019-03-03T01:35:52.964Z,7.62
2019-03-03T01:38:22.861Z,9.10
2019-03-03T01:40:54.183Z,9.23
2019-03-03T01:43:23.846Z,7.45
2019-03-03T01:45:53.870Z,7.28
2019-03-03T01:48:23.599Z,9.70
2019-03-03T01:50:53.371Z,7.20
2019-03-03T01:53:23.109Z,9.05
2019-03-03T01:55:52.790Z,9.93
2019-03-03T01:58:22.512Z,7.30
2019-03-03T02:00:52.205Z,8.75
2019-03-03T02:03:23.350Z,7.62
2019-03-03T02:05:53.120Z,9.08
2019-03-03T02:08:24.733Z,9.15
2019-03-03T02:10:54.521Z,9.73
2019-03-03T02:13:24.409Z,9.10
2019-03-03T02:15:54.150Z,7.85
2019-03-03T02:18:23.888Z,7.97
2019-03-03T02:20:53.668Z,9.25
2019-03-03T02:23:24.596Z,8.70
2019-03-03T02:25:54.385Z,8.78
2019-03-03T02:28:24.260Z,10.20
2019-03-03T02:30:53.996Z,12.25
2019-03-03T02:33:24.602Z,7.33
2019-03-03T02:35:54.426Z,7.85
2019-03-03T02:38:24.346Z,7.78
2019-03-03T02:40:54.152Z,10.13
2019-03-03T02:43:23.929Z,9.98
2019-03-03T02:45:53.693Z,8.08
2019-03-03T02:48:23.446Z,7.90
2019-03-03T02:50:53.218Z,10.20
2019-03-03T02:53:22.921Z,8.03
2019-03-03T02:55:52.695Z,11.88
2019-03-03T02:58:22.495Z,8.50
2019-03-03T03:00:56.758Z,7.90
2019-03-03T03:03:26.754Z,9.43
2019-03-03T03:05:58.082Z,8.45
2019-03-03T03:08:29.541Z,8.65
2019-03-03T03:11:10.119Z,6.17
2019-03-03T03:13:46.987Z,8.68
2019-03-03T03:16:30.226Z,11.28
2019-03-03T03:19:11.773Z,9.25
2019-03-03T03:21:49.775Z,9.53
2019-03-03T03:24:21.136Z,8.58
2019-03-03T03:26:58.507Z,9.15
2019-03-03T03:29:32.929Z,7.90
2019-03-03T03:32:22.907Z,10.28
2019-03-03T03:34:54.331Z,6.03
2019-03-03T03:37:41.043Z,6.85
2019-03-03T03:40:12.407Z,5.28
2019-03-03T03:42:56.650Z,5.40
2019-03-03T03:45:28.202Z,5.60
2019-03-03T03:47:59.562Z,7.65
2019-03-03T03:50:30.941Z,6.05
2019-03-03T03:53:17.668Z,5.75
2019-03-03T03:56:05.711Z,6.92
2019-03-03T03:58:52.841Z,8.55
2019-03-03T04:01:40.467Z,6.08
2019-03-03T04:04:11.843Z,7.92
2019-03-03T04:07:00.134Z,7.80
2019-03-03T04:09:34.692Z,8.18
2019-03-03T04:12:22.374Z,7.53
2019-03-03T04:14:53.807Z,5.83
2019-03-03T04:17:37.135Z,7.70
2019-03-03T04:20:25.757Z,7.72
2019-03-03T04:23:03.145Z,7.58
2019-03-03T04:25:50.992Z,9.63
2019-03-03T04:28:26.368Z,5.37
2019-03-03T04:31:10.095Z,7.03
2019-03-03T04:33:44.584Z,6.72
2019-03-03T04:36:15.974Z,5.08
2019-03-03T04:38:53.352Z,5.33
2019-03-03T04:41:27.833Z,6.83
2019-03-03T04:44:17.269Z,9.90
2019-03-03T04:46:57.946Z,6.72
2019-03-03T04:49:29.283Z,7.80
2019-03-03T04:52:00.885Z,12.85
2019-03-03T04:54:35.270Z,8.33
2019-03-03T04:57:12.363Z,5.80
2019-03-03T04:59:59.025Z,5.37
2019-03-03T05:02:45.522Z,5.30
2019-03-03T05:05:16.927Z,9.40
2019-03-03T05:07:48.458Z,7.90
2019-03-03T05:10:36.261Z,6.70
2019-03-03T05:13:10.617Z,6.58
2019-03-03T05:15:41.993Z,8.65
2019-03-03T05:18:19.139Z,6.90
2019-03-03T05:20:51.939Z,6.60
2019-03-03T05:23:21.639Z,5.85
2019-03-03T05:25:51.389Z,7.42
2019-03-03T05:28:21.017Z,5.97
2019-03-03T05:30:50.750Z,6.03
2019-03-03T05:33:20.377Z,5.00
2019-03-03T05:35:50.103Z,5.50
2019-03-03T05:38:19.889Z,5.40
2019-03-03T05:40:49.679Z,5.35
2019-03-03T05:43:19.395Z,4.75
2019-03-03T05:45:49.132Z,4.50
2019-03-03T05:48:18.827Z,5.62
2019-03-03T05:50:48.609Z,5.87
2019-03-03T05:53:19.326Z,5.00
2019-03-03T05:55:49.249Z,5.72
2019-03-03T05:58:19.037Z,5.17
2019-03-03T06:00:48.908Z,5.85
2019-03-03T06:03:18.763Z,5.33
2019-03-03T06:05:48.680Z,4.47
2019-03-03T06:08:18.367Z,4.65
2019-03-03T06:10:48.207Z,5.97
2019-03-03T06:13:18.040Z,8.78
2019-03-03T06:15:47.963Z,4.08
2019-03-03T06:18:17.755Z,7.28
2019-03-03T06:20:47.491Z,4.37
2019-03-03T06:23:17.433Z,6.97
2019-03-03T06:25:47.381Z,6.42
2019-03-03T06:28:17.251Z,4.85
2019-03-03T06:30:47.219Z,8.00
2019-03-03T06:33:17.120Z,7.05
2019-03-03T06:35:46.876Z,8.33
2019-03-03T06:38:16.784Z,6.20
2019-03-03T06:40:46.555Z,4.65
2019-03-03T06:43:16.373Z,6.22
2019-03-03T06:45:46.513Z,4.67
2019-03-03T06:48:16.402Z,6.87
2019-03-03T06:50:46.405Z,5.70
2019-03-03T06:53:16.100Z,7.08
2019-03-03T06:55:45.855Z,11.40
2019-03-03T06:58:15.781Z,6.87
2019-03-03T07:00:45.655Z,6.72
2019-03-03T07:03:15.453Z,5.60
2019-03-03T07:05:45.548Z,4.28
2019-03-03T07:08:15.358Z,4.37
2019-03-03T07:10:57.283Z,5.67
2019-03-03T07:13:27.336Z,4.78
2019-03-03T07:15:57.234Z,6.30
2019-03-03T07:18:27.005Z,9.03
2019-03-03T07:20:56.796Z,3.87
2019-03-03T07:23:26.746Z,5.67
2019-03-03T07:25:56.472Z,6.08
2019-03-03T07:28:26.152Z,4.03
2019-03-03T07:30:56.320Z,7.50
2019-03-03T07:33:27.723Z,7.92
2019-03-03T07:35:57.756Z,5.37
2019-03-03T07:38:27.559Z,13.25
2019-03-03T07:40:57.506Z,4.92
2019-03-03T07:43:27.310Z,5.03
2019-03-03T07:45:57.045Z,5.10
2019-03-03T07:48:26.816Z,8.70
2019-03-03T07:50:56.676Z,4.53
2019-03-03T07:53:26.572Z,5.30
2019-03-03T07:55:56.536Z,3.75
2019-03-03T07:58:26.291Z,9.23
2019-03-03T08:00:56.166Z,6.45
2019-03-03T08:03:25.982Z,5.80
2019-03-03T08:05:55.845Z,11.20
2019-03-03T08:08:25.803Z,7.10
2019-03-03T08:10:55.687Z,7.30
2019-03-03T08:13:27.141Z,6.60
2019-03-03T08:15:57.053Z,9.63
2019-03-03T08:18:26.971Z,8.25
2019-03-03T08:20:56.966Z,7.03
2019-03-03T08:23:26.934Z,6.85
2019-03-03T08:25:58.324Z,4.47
2019-03-03T08:28:29.439Z,6.10
2019-03-03T08:30:59.491Z,6.35
2019-03-03T08:33:29.371Z,5.95
2019-03-03T08:35:59.245Z,5.97
2019-03-03T08:38:29.147Z,6.37
2019-03-03T08:40:59.012Z,6.75
2019-03-03T08:43:30.479Z,6.50
2019-03-03T08:46:01.841Z,7.17
2019-03-03T08:48:35.875Z,6.37
2019-03-03T08:51:10.034Z,5.17
2019-03-03T08:53:41.654Z,6.28
2019-03-03T08:56:22.347Z,8.03
2019-03-03T08:58:53.761Z,6.08
2019-03-03T09:01:31.305Z,6.50
2019-03-03T09:04:12.025Z,5.22
2019-03-03T09:06:46.517Z,5.08
2019-03-03T09:09:27.227Z,9.15
2019-03-03T09:12:01.677Z,6.83
2019-03-03T09:14:39.380Z,9.18
2019-03-03T09:17:11.079Z,5.12
2019-03-03T09:19:51.577Z,5.87
2019-03-03T09:22:25.740Z,8.50
2019-03-03T09:24:57.182Z,6.45
2019-03-03T09:27:45.047Z,10.18
2019-03-03T09:30:19.254Z,11.53
2019-03-03T09:33:02.675Z,8.03
2019-03-03T09:35:39.998Z,6.67
2019-03-03T09:38:20.814Z,4.10
2019-03-03T09:40:53.874Z,7.40
2019-03-03T09:43:31.629Z,2.77
2019-03-03T09:46:18.412Z,4.17
2019-03-03T09:49:05.514Z,7.85
2019-03-03T09:51:36.998Z,11.12
2019-03-03T09:54:17.269Z,5.85
2019-03-03T10:00:03.016Z,7.65
2019-03-03T10:02:38.879Z,4.85
2019-03-03T10:05:14.059Z,12.37
2019-03-03T10:07:52.000Z,9.70
2019-03-03T10:10:26.979Z,5.60
2019-03-03T10:13:16.708Z,5.42
2019-03-03T10:16:03.695Z,9.55
2019-03-03T10:18:47.056Z,6.95
2019-03-03T10:21:18.705Z,8.45
2019-03-03T10:23:56.345Z,8.10
2019-03-03T10:26:44.446Z,9.40
2019-03-03T10:29:18.654Z,7.12
2019-03-03T10:32:02.434Z,8.83
2019-03-03T10:34:52.478Z,6.58
2019-03-03T10:37:24.200Z,3.92
2019-03-03T10:39:55.534Z,8.78
2019-03-03T10:42:42.166Z,11.22
2019-03-03T10:45:13.678Z,7.67
2019-03-03T10:47:54.326Z,4.22
2019-03-03T10:50:44.234Z,9.13
2019-03-03T10:53:21.533Z,6.78
2019-03-03T10:56:05.380Z,8.55
2019-03-03T10:58:53.504Z,7.15
2019-03-03T11:01:25.121Z,6.70
2019-03-03T11:04:14.010Z,12.00
2019-03-03T11:06:48.814Z,7.90
2019-03-03T11:09:24.568Z,7.72
2019-03-03T11:11:59.068Z,11.70
2019-03-03T11:14:42.621Z,13.88
2019-03-03T11:17:24.399Z,7.45
2019-03-03T11:20:10.997Z,6.20
2019-03-03T11:22:51.416Z,9.80
2019-03-03T11:25:32.182Z,4.83
2019-03-03T11:28:03.663Z,7.15
2019-03-03T11:30:39.546Z,6.20
2019-03-03T11:33:27.713Z,6.00
2019-03-03T11:36:06.069Z,5.90
2019-03-03T11:38:52.730Z,4.75
2019-03-03T11:41:29.999Z,7.47
2019-03-03T11:44:05.980Z,5.67
2019-03-03T11:46:46.757Z,3.33
2019-03-03T11:49:20.904Z,8.45
2019-03-03T11:52:02.985Z,9.73
2019-03-03T11:54:37.235Z,4.45
2019-03-03T11:57:24.017Z,4.95
2019-03-03T12:00:10.585Z,7.42
2019-03-03T12:02:41.989Z,7.45
2019-03-03T12:05:16.353Z,9.73
2019-03-03T12:07:50.776Z,5.95
2019-03-03T12:10:22.894Z,6.65
2019-03-03T12:13:00.213Z,9.28
2019-03-03T12:15:46.839Z,8.55
2019-03-03T12:18:34.145Z,5.37
2019-03-03T12:21:08.338Z,4.35
2019-03-03T12:23:56.332Z,8.25
2019-03-03T12:26:33.867Z,6.42
2019-03-03T12:29:08.388Z,9.90
2019-03-03T12:31:39.754Z,5.90
2019-03-03T12:34:14.127Z,10.88
2019-03-03T12:36:45.510Z,7.40
2019-03-03T12:39:17.066Z,7.55
2019-03-03T12:42:03.758Z,6.72
2019-03-03T12:44:35.976Z,5.30
2019-03-03T12:47:16.544Z,6.80
2019-03-03T12:50:04.295Z,4.40
2019-03-03T12:52:35.730Z,7.08
2019-03-03T12:55:26.792Z,7.70
2019-03-03T12:58:14.906Z,10.30
2019-03-03T13:01:04.452Z,11.83
2019-03-03T13:03:38.609Z,6.17
2019-03-03T13:06:24.054Z,6.65
2019-03-03T13:08:59.596Z,8.00
2019-03-03T13:11:28.731Z,5.62
2019-03-03T13:14:03.314Z,5.60
2019-03-03T13:16:34.776Z,8.20
2019-03-03T13:19:24.327Z,4.90
2019-03-03T13:21:55.778Z,6.42
2019-03-03T13:24:42.376Z,7.62
2019-03-03T13:27:16.751Z,6.42
2019-03-03T13:30:06.736Z,7.70
2019-03-03T13:32:53.641Z,7.85
2019-03-03T13:35:37.409Z,5.25
2019-03-03T13:38:11.558Z,8.45
2019-03-03T13:40:46.199Z,6.78
2019-03-03T13:43:16.062Z,4.78
2019-03-03T13:45:46.174Z,7.62
2019-03-03T13:48:19.262Z,8.10
2019-03-03T13:50:49.399Z,5.30
2019-03-03T13:53:19.150Z,7.83
2019-03-03T13:55:49.129Z,5.33
2019-03-03T13:58:19.009Z,5.50
2019-03-03T14:00:48.731Z,5.35
2019-03-03T14:03:18.435Z,4.80
2019-03-03T14:05:48.651Z,3.67
2019-03-03T14:08:18.494Z,5.22
2019-03-03T14:10:48.691Z,4.87
2019-03-03T14:13:18.549Z,5.87
2019-03-03T14:15:48.565Z,6.97
2019-03-03T14:18:18.417Z,7.00
2019-03-03T14:20:48.272Z,3.45
2019-03-03T14:23:18.461Z,6.45
2019-03-03T14:25:48.200Z,7.17
2019-03-03T14:28:18.003Z,4.75
2019-03-03T14:30:48.037Z,5.87
2019-03-03T14:33:17.847Z,5.28
2019-03-03T14:35:47.811Z,6.03
2019-03-03T14:38:17.765Z,7.30
2019-03-03T14:40:47.693Z,6.80
2019-03-03T14:43:17.661Z,5.95
2019-03-03T14:45:47.661Z,5.90
2019-03-03T14:48:17.638Z,4.55
2019-03-03T14:50:47.471Z,4.90
2019-03-03T14:53:18.446Z,4.83
2019-03-03T14:55:48.537Z,4.95
2019-03-03T14:58:18.389Z,4.35
2019-03-03T15:00:48.754Z,4.55
2019-03-03T15:03:18.609Z,3.50
2019-03-03T15:05:48.389Z,2.80
2019-03-03T15:08:18.374Z,2.15
2019-03-03T15:10:48.316Z,4.12
2019-03-03T15:13:19.822Z,2.62
2019-03-03T15:15:49.718Z,3.65
2019-03-03T15:18:20.897Z,3.58
2019-03-03T15:20:50.671Z,2.83
2019-03-03T15:23:20.456Z,3.52
2019-03-03T15:25:50.400Z,2.27
2019-03-03T15:28:20.235Z,5.55
2019-03-03T15:30:51.399Z,1.15
2019-03-03T15:33:21.525Z,1.80
2019-03-03T15:35:51.484Z,3.12
2019-03-03T15:38:21.298Z,3.37
2019-03-03T15:40:51.226Z,0.98
2019-03-03T15:43:21.131Z,1.95
2019-03-03T15:45:50.954Z,1.72
2019-03-03T15:48:20.758Z,2.30
2019-03-03T15:50:52.917Z,1.87
2019-03-03T15:53:22.778Z,1.60
2019-03-03T15:55:54.938Z,2.52
2019-03-03T15:58:25.202Z,2.30
2019-03-03T16:00:54.963Z,2.02
2019-03-03T16:03:24.953Z,3.60
2019-03-03T16:05:54.678Z,3.30
2019-03-03T16:08:24.820Z,2.45
2019-03-03T16:10:54.531Z,3.37
2019-03-03T16:13:24.366Z,1.42
2019-03-03T16:15:54.284Z,2.80
2019-03-03T16:18:24.225Z,1.85
2019-03-03T16:20:54.325Z,1.50
2019-03-03T16:23:24.064Z,3.10
2019-03-03T16:25:53.838Z,1.15
2019-03-03T16:28:25.163Z,3.55
2019-03-03T16:30:55.121Z,1.37
2019-03-03T16:33:24.982Z,1.45
2019-03-03T16:35:54.911Z,3.83
2019-03-03T16:38:26.986Z,3.15
2019-03-03T16:40:56.890Z,5.62
2019-03-03T16:43:27.418Z,1.67
2019-03-03T16:45:57.239Z,2.00
2019-03-03T16:48:27.049Z,3.92
2019-03-03T16:50:57.081Z,1.75
2019-03-03T16:53:27.043Z,2.37
2019-03-03T16:55:56.912Z,1.05
2019-03-03T16:58:26.936Z,3.98
2019-03-03T17:00:56.859Z,2.15
2019-03-03T17:03:26.838Z,2.12
2019-03-03T17:05:57.036Z,2.87
2019-03-03T17:08:26.848Z,1.77
2019-03-03T17:10:56.698Z,3.50
2019-03-03T17:13:26.632Z,3.35
2019-03-03T17:15:56.456Z,4.33
2019-03-03T17:18:26.478Z,1.22
2019-03-03T17:20:56.716Z,1.57
2019-03-03T17:23:26.815Z,3.42
2019-03-03T17:25:56.719Z,1.75
2019-03-03T17:28:26.581Z,3.83
2019-03-03T17:30:56.578Z,4.83
2019-03-03T17:33:28.066Z,4.62
2019-03-03T17:35:58.127Z,2.45
2019-03-03T17:38:28.530Z,3.05
2019-03-03T17:40:58.421Z,3.27
2019-03-03T17:43:28.527Z,7.03
2019-03-03T17:45:58.553Z,2.83
2019-03-03T17:48:28.605Z,3.62
2019-03-03T17:50:59.779Z,2.70
2019-03-03T17:53:29.806Z,4.53
2019-03-03T17:55:59.751Z,1.47
2019-03-03T17:58:29.771Z,2.75
2019-03-03T18:00:59.751Z,2.05
2019-03-03T18:03:29.762Z,2.77
2019-03-03T18:05:59.756Z,3.50
2019-03-03T18:08:29.724Z,3.15
2019-03-03T18:10:59.786Z,5.28
2019-03-03T18:13:29.770Z,1.42
2019-03-03T18:15:59.713Z,2.90
2019-03-03T18:18:30.026Z,5.50
2019-03-03T18:21:00.165Z,1.65
2019-03-03T18:23:30.047Z,3.87
2019-03-03T18:25:59.923Z,2.27
2019-03-03T18:28:29.980Z,2.47
2019-03-03T18:30:59.795Z,1.85
2019-03-03T18:33:29.818Z,2.72
2019-03-03T18:35:59.747Z,1.57
2019-03-03T18:38:30.752Z,3.33
2019-03-03T18:41:00.552Z,2.22
2019-03-03T18:43:30.296Z,3.20
2019-03-03T18:46:00.802Z,2.60
2019-03-03T18:48:31.340Z,4.65
2019-03-03T18:51:01.272Z,1.00
2019-03-03T18:53:31.189Z,2.12
2019-03-03T18:56:01.293Z,3.40
2019-03-03T18:58:31.134Z,3.60
2019-03-03T19:01:01.240Z,2.95
2019-03-03T19:03:32.345Z,2.72
2019-03-03T19:06:02.536Z,1.95
2019-03-03T19:08:33.711Z,4.87
2019-03-03T19:11:04.447Z,2.65
2019-03-03T19:13:35.636Z,4.58
2019-03-03T19:16:05.942Z,3.50
2019-03-03T19:18:35.839Z,2.55
2019-03-03T19:21:06.055Z,2.05
2019-03-03T19:23:35.882Z,1.50
2019-03-03T19:26:06.158Z,1.72
2019-03-03T19:28:35.975Z,3.02
2019-03-03T19:31:05.949Z,1.77
2019-03-03T19:33:37.198Z,1.35
2019-03-03T19:36:07.025Z,3.12
2019-03-03T19:38:37.046Z,1.42
2019-03-03T19:41:06.834Z,4.50
2019-03-03T19:43:37.865Z,2.17
2019-03-03T19:46:09.631Z,3.30
2019-03-03T19:48:39.504Z,4.53
2019-03-03T19:51:09.709Z,2.72
2019-03-03T19:53:39.605Z,3.22
2019-03-03T19:56:09.443Z,3.30
2019-03-03T19:58:39.337Z,2.50
2019-03-03T20:01:09.357Z,4.25
2019-03-03T20:03:39.456Z,7.92
2019-03-03T20:06:09.300Z,3.52
2019-03-03T20:08:39.136Z,2.42
2019-03-03T20:11:09.067Z,5.28
2019-03-03T20:13:39.492Z,3.40
2019-03-03T20:16:09.495Z,3.67
2019-03-03T20:18:41.307Z,3.58
2019-03-03T20:21:11.011Z,4.17
2019-03-03T20:23:42.497Z,3.25
2019-03-03T20:26:12.444Z,2.90
2019-03-03T20:28:42.239Z,1.95
2019-03-03T20:31:12.087Z,2.98
2019-03-03T20:33:41.986Z,4.50
2019-03-03T20:36:11.985Z,4.65
2019-03-03T20:38:41.918Z,3.30
2019-03-03T20:41:11.611Z,4.70
2019-03-03T20:43:41.485Z,3.65
2019-03-03T20:46:11.407Z,4.47
2019-03-03T20:48:41.214Z,3.80
2019-03-03T20:51:11.058Z,4.33
2019-03-03T20:53:40.936Z,3.37
2019-03-03T20:56:10.689Z,3.72
2019-03-03T20:58:40.497Z,3.85
2019-03-03T21:01:10.357Z,4.00
2019-03-03T21:03:40.291Z,3.20
2019-03-03T21:06:10.072Z,3.50
2019-03-03T21:08:39.993Z,4.20
2019-03-03T21:11:09.777Z,3.22
2019-03-03T21:13:39.628Z,6.53
2019-03-03T21:16:09.606Z,3.30
2019-03-03T21:18:39.535Z,8.15
2019-03-03T21:21:09.395Z,2.83
2019-03-03T21:23:39.151Z,3.60
2019-03-03T21:26:08.971Z,5.67
2019-03-03T21:28:38.805Z,3.60
2019-03-03T21:31:09.274Z,3.47
2019-03-03T21:33:39.199Z,2.62
2019-03-03T21:36:09.021Z,2.58
2019-03-03T21:38:41.576Z,2.62
2019-03-03T21:41:11.508Z,2.27
2019-03-03T21:43:41.388Z,3.20
2019-03-03T21:46:11.184Z,2.67
2019-03-03T21:48:41.045Z,2.70
2019-03-03T21:51:18.840Z,3.10
2019-03-03T21:53:48.660Z,2.02
2019-03-03T21:56:18.867Z,4.30
2019-03-03T21:58:48.772Z,4.58
2019-03-03T22:01:19.497Z,4.83
2019-03-03T22:03:49.443Z,3.75
2019-03-03T22:06:19.397Z,3.08
2019-03-03T22:08:49.395Z,1.22
2019-03-03T22:11:19.643Z,1.87
2019-03-03T22:13:49.703Z,4.47
2019-03-03T22:16:19.898Z,4.78
2019-03-03T22:18:49.816Z,4.47
2019-03-03T22:21:19.765Z,2.70
2019-03-03T22:23:49.725Z,2.27
2019-03-03T22:26:19.912Z,2.52
2019-03-03T22:28:49.765Z,1.98
2019-03-03T22:31:20.188Z,1.82
2019-03-03T22:33:50.055Z,2.27
2019-03-03T22:36:20.137Z,2.05
2019-03-03T22:38:50.185Z,2.10
2019-03-03T22:41:20.261Z,2.42
2019-03-03T22:43:50.139Z,2.35
2019-03-03T22:46:20.089Z,1.75
2019-03-03T22:48:50.187Z,5.55
2019-03-03T22:51:20.047Z,4.05
2019-03-03T22:53:49.934Z,1.67
2019-03-03T22:56:19.864Z,3.67
2019-03-03T22:58:49.665Z,2.47
2019-03-03T23:01:21.945Z,4.83
2019-03-03T23:03:53.692Z,2.22
2019-03-03T23:06:28.203Z,1.85
2019-03-03T23:09:11.771Z,2.42
2019-03-03T23:11:47.498Z,2.95
2019-03-03T23:14:22.055Z,2.80
2019-03-03T23:16:53.413Z,2.15
2019-03-03T23:19:27.741Z,2.15
2019-03-03T23:22:17.754Z,1.92
2019-03-03T23:24:55.325Z,4.45
2019-03-03T23:27:25.235Z,4.50
2019-03-03T23:29:55.086Z,1.10
2019-03-03T23:32:24.807Z,1.47
2019-03-03T23:34:54.605Z,2.27
2019-03-03T23:37:24.327Z,2.15
2019-03-03T23:39:54.121Z,1.77
2019-03-03T23:42:24.207Z,3.60
2019-03-03T23:44:53.995Z,1.17
2019-03-03T23:47:23.949Z,3.37
2019-03-03T23:49:53.896Z,2.50
2019-03-03T23:52:24.555Z,2.12
2019-03-03T23:54:54.250Z,1.90
2019-03-03T23:57:24.053Z,4.33
2019-03-03T23:59:53.890Z,1.30
